KRCR/RCR METAR and TAF weather

Enter ICAO airport designator
Station Type Date Time Source
KRCR METAR 2020/01/17 14:15 UTC NOAA

KRCR 171415Z AUTO 10010KT 10SM CLR M05/M10 A3077 RMK AO2


Station Type Date Time Source
KRCR Decoded METAR 2020/01/17 14:15 UTC NOAA

Station name not available
Jan 17, 2020 - 09:15 AM EST / 2020.01.17 1415 UTC
Wind: from the E (100 degrees) at 12 MPH (10 KT):0
Visibility: 10 mile(s):0
Sky conditions: clear
Temperature: 23 F (-5 C)
Windchill: 12 F (-11 C):1
Dew Point: 14 F (-10 C)
Relative Humidity: 67%
Pressure (altimeter): 30.77 in. Hg (1041 hPa)
ob: KRCR 171415Z AUTO 10010KT 10SM CLR M05/M10 A3077 RMK AO2
cycle: 14

Station Type Date Time Source
KRCR TAF UTC NOAA

Error!

Example: see airport list